createdAt,value
2019-04-05T00:04:40.744Z,46.67
2019-04-05T00:09:47.827Z,50.63
2019-04-05T00:14:53.610Z,48.71
2019-04-05T00:20:00.766Z,51.22
2019-04-05T00:25:06.614Z,48.00
2019-04-05T00:30:13.286Z,47.57
2019-04-05T00:35:20.266Z,50.63
2019-04-05T00:40:25.626Z,46.00
2019-04-05T00:45:29.384Z,51.60
2019-04-05T00:50:33.335Z,49.00
2019-04-05T00:55:36.841Z,54.33
2019-04-05T01:00:40.935Z,45.00
2019-04-05T01:05:49.014Z,46.37
2019-04-05T01:10:52.558Z,53.20
2019-04-05T01:15:58.182Z,50.80
2019-04-05T01:21:09.855Z,44.13
2019-04-05T01:26:20.546Z,48.23
2019-04-05T01:31:28.145Z,46.44
2019-04-05T01:36:33.658Z,51.60
2019-04-05T01:41:41.512Z,40.44
2019-04-05T01:46:47.920Z,42.67
2019-04-05T01:51:59.406Z,57.90
2019-04-05T01:57:12.020Z,44.36
2019-04-05T02:02:16.587Z,42.00
2019-04-05T02:07:25.354Z,40.00
2019-04-05T02:12:34.946Z,42.83
2019-04-05T02:17:41.988Z,44.50
2019-04-05T02:22:48.196Z,41.88
2019-04-05T02:27:56.320Z,41.90
2019-04-05T02:33:02.379Z,52.00
2019-04-05T02:38:14.283Z,44.14
2019-04-05T02:43:23.874Z,52.56
2019-04-05T02:48:28.360Z,38.00
2019-04-05T02:53:38.638Z,41.37
2019-04-05T02:58:47.748Z,39.25
2019-04-05T03:03:54.601Z,35.75
2019-04-05T03:09:03.617Z,44.25
2019-04-05T03:14:11.852Z,44.29
2019-04-05T03:19:17.204Z,50.00
2019-04-05T03:24:22.554Z,42.20
2019-04-05T03:29:33.699Z,44.67
2019-04-05T03:34:44.920Z,57.93
2019-04-05T03:39:50.445Z,44.86
2019-04-05T03:44:53.920Z,49.00
2019-04-05T03:49:57.814Z,52.40
2019-04-05T03:55:01.329Z,50.00
2019-04-05T04:00:06.574Z,47.33
2019-04-05T04:05:14.971Z,39.57
2019-04-05T04:10:24.178Z,47.88
2019-04-05T04:15:29.305Z,42.50
2019-04-05T04:20:37.884Z,49.00
2019-04-05T04:25:47.221Z,56.25
2019-04-05T04:31:01.870Z,52.00
2019-04-05T04:36:05.542Z,49.00
2019-04-05T04:41:09.202Z,41.50
2019-04-05T04:46:19.696Z,65.00
2019-04-05T04:52:31.226Z,54.00
2019-04-05T04:57:43.494Z,50.31
2019-04-05T05:02:47.917Z,49.25
2019-04-05T05:07:52.715Z,72.00
2019-04-05T05:12:57.694Z,50.00
2019-04-05T05:18:02.271Z,46.33
2019-04-05T05:23:07.351Z,49.67
2019-04-05T05:28:16.456Z,52.00
2019-04-05T05:33:20.086Z,51.00
2019-04-05T05:38:23.976Z,55.25
2019-04-05T05:43:33.746Z,58.33
2019-04-05T05:48:40.252Z,48.50
2019-04-05T05:53:48.891Z,48.82
2019-04-05T05:58:58.905Z,49.25
2019-04-05T06:03:59.974Z,47.25
2019-04-05T06:09:08.770Z,46.75
2019-04-05T06:14:18.140Z,45.00
2019-04-05T06:19:24.380Z,47.13
2019-04-05T06:24:32.141Z,49.75
2019-04-05T06:29:37.656Z,36.71
2019-04-05T06:34:43.034Z,38.63
2019-04-05T06:39:50.022Z,43.63
2019-04-05T06:44:54.988Z,40.25
2019-04-05T06:50:01.512Z,41.75
2019-04-05T06:55:06.126Z,42.86
2019-04-05T07:00:14.547Z,43.75
2019-04-05T07:05:17.571Z,40.33
2019-04-05T07:10:25.135Z,46.13
2019-04-05T07:15:33.398Z,49.00
2019-04-05T07:20:40.146Z,47.00
2019-04-05T07:25:45.825Z,56.50
2019-04-05T07:30:51.576Z,40.50
2019-04-05T07:35:58.010Z,50.63
2019-04-05T07:41:01.269Z,47.00
2019-04-05T07:46:06.183Z,41.25
2019-04-05T07:51:14.379Z,53.75
2019-04-05T07:56:17.634Z,47.67
2019-04-05T08:01:21.577Z,40.00
2019-04-05T08:06:31.134Z,39.50
2019-04-05T08:11:38.274Z,30.50
2019-04-05T08:16:41.794Z,36.00
2019-04-05T08:21:49.795Z,27.00
2019-04-05T08:26:53.541Z,27.50
2019-04-05T08:31:58.355Z,39.75
2019-04-05T08:37:05.506Z,33.50
2019-04-05T08:42:10.948Z,32.25
2019-04-05T08:47:16.475Z,29.50
2019-04-05T08:52:20.913Z,30.50
2019-04-05T08:57:25.524Z,30.00
2019-04-05T09:02:33.411Z,34.71
2019-04-05T09:07:41.906Z,29.86
2019-04-05T09:12:47.117Z,30.00
2019-04-05T09:17:53.246Z,28.12
2019-04-05T09:22:57.080Z,27.00
2019-04-05T09:28:01.703Z,39.75
2019-04-05T09:33:07.944Z,24.63
2019-04-05T09:38:15.755Z,27.25
2019-04-05T09:43:20.366Z,27.50
2019-04-05T09:48:28.325Z,24.63
2019-04-05T09:53:32.084Z,34.67
2019-04-05T09:58:35.847Z,26.00
2019-04-05T10:03:39.846Z,28.00
2019-04-05T10:08:45.937Z,23.50
2019-04-05T10:13:49.596Z,24.25
2019-04-05T10:18:53.262Z,18.50
2019-04-05T10:23:58.405Z,22.29
2019-04-05T10:29:01.856Z,40.00
2019-04-05T10:34:07.155Z,30.37
2019-04-05T10:39:14.203Z,22.87
2019-04-05T10:44:19.316Z,20.57
2019-04-05T10:49:22.722Z,18.33
2019-04-05T10:54:27.887Z,19.29
2019-04-05T10:59:32.116Z,18.40
2019-04-05T11:04:37.747Z,18.71
2019-04-05T11:09:42.663Z,24.25
2019-04-05T11:14:48.558Z,23.87
2019-04-05T11:19:52.050Z,21.00
2019-04-05T11:24:55.796Z,21.75
2019-04-05T11:30:01.387Z,17.14
2019-04-05T11:35:05.862Z,23.67
2019-04-05T11:40:13.236Z,15.63
2019-04-05T11:45:16.775Z,23.50
2019-04-05T11:50:33.851Z,22.71
2019-04-05T11:55:28.344Z,21.43
2019-04-05T12:00:32.924Z,21.00
2019-04-05T12:05:37.507Z,18.43
2019-04-05T12:10:42.001Z,19.86
2019-04-05T12:15:46.236Z,16.00
2019-04-05T12:20:59.601Z,16.00
2019-04-05T12:25:57.458Z,17.25
2019-04-05T12:31:03.886Z,17.00
2019-04-05T12:36:09.075Z,16.14
2019-04-05T12:41:18.255Z,14.43
2019-04-05T12:46:23.621Z,17.00
2019-04-05T12:51:31.406Z,17.50
2019-04-05T12:56:37.433Z,15.00
2019-04-05T13:01:45.532Z,14.14
2019-04-05T13:06:54.460Z,18.00
2019-04-05T13:12:00.775Z,17.00
2019-04-05T13:17:05.424Z,12.86
2019-04-05T13:22:09.118Z,18.67
2019-04-05T13:27:13.908Z,12.17
2019-04-05T13:32:21.617Z,11.83
2019-04-05T13:37:25.086Z,53.43
2019-04-05T13:42:31.300Z,15.50
2019-04-05T13:47:38.885Z,15.29
2019-04-05T13:52:44.688Z,15.00
2019-04-05T13:57:49.839Z,13.00
2019-04-05T14:02:57.726Z,37.86
2019-04-05T14:08:10.545Z,18.67
2019-04-05T14:13:09.563Z,20.00
2019-04-05T14:18:15.329Z,7.67
2019-04-05T14:23:23.966Z,14.86
2019-04-05T14:28:26.955Z,14.33
2019-04-05T14:33:30.600Z,34.75
2019-04-05T14:38:36.365Z,14.00
2019-04-05T14:43:44.926Z,15.57
2019-04-05T14:48:50.526Z,14.43
2019-04-05T14:53:55.381Z,17.71
2019-04-05T14:58:59.132Z,18.00
2019-04-05T15:04:05.048Z,16.29
2019-04-05T15:09:10.170Z,14.86
2019-04-05T15:14:16.637Z,23.12
2019-04-05T15:19:22.832Z,15.29
2019-04-05T15:24:31.553Z,18.80
2019-04-05T15:29:35.305Z,22.00
2019-04-05T15:34:41.735Z,16.71
2019-04-05T15:39:44.802Z,26.00
2019-04-05T15:44:51.423Z,21.29
2019-04-05T15:49:54.723Z,20.67
2019-04-05T15:55:01.705Z,42.57
2019-04-05T16:00:06.703Z,21.25
2019-04-05T16:05:12.326Z,28.71
2019-04-05T16:10:20.230Z,24.87
2019-04-05T16:15:24.479Z,33.60
2019-04-05T16:20:30.618Z,36.38
2019-04-05T16:25:36.787Z,36.43
2019-04-05T16:30:42.297Z,55.71
2019-04-05T16:35:45.824Z,25.60
2019-04-05T16:51:10.916Z,26.62
2019-04-05T16:56:15.046Z,45.80
2019-04-05T17:01:28.595Z,27.67
2019-04-05T17:06:32.256Z,25.25
2019-04-05T17:11:39.027Z,27.00
2019-04-05T17:16:45.553Z,27.29
2019-04-05T17:21:50.270Z,33.29
2019-04-05T17:26:55.921Z,33.71
2019-04-05T17:31:58.809Z,27.67
2019-04-05T17:37:08.236Z,48.44
2019-04-05T17:42:11.678Z,38.25
2019-04-05T17:47:15.642Z,33.00
2019-04-05T17:52:22.008Z,33.38
2019-04-05T17:57:29.248Z,27.50
2019-04-05T18:02:33.490Z,34.50
2019-04-05T18:07:36.694Z,48.00
2019-04-05T18:12:43.045Z,41.88
2019-04-05T18:17:55.647Z,47.56
2019-04-05T18:23:03.432Z,35.22
2019-04-05T18:28:11.952Z,41.63
2019-04-05T18:33:15.958Z,49.50
2019-04-05T18:38:19.501Z,43.00
2019-04-05T18:43:28.865Z,45.00
2019-04-05T18:48:36.987Z,47.62
2019-04-05T18:53:45.340Z,51.50
2019-04-05T18:58:49.058Z,50.50
2019-04-05T19:03:53.214Z,39.33
2019-04-05T19:09:02.080Z,43.00
2019-04-05T19:14:11.982Z,41.75
2019-04-05T19:19:20.145Z,37.45
2019-04-05T19:24:28.274Z,41.22
2019-04-05T19:29:38.146Z,52.10
2019-04-05T19:50:10.655Z,52.80
2019-04-05T19:55:15.489Z,45.00
2019-04-05T20:05:29.105Z,50.33
2019-04-05T20:10:33.538Z,46.00
2019-04-05T20:15:37.038Z,63.25
2019-04-05T20:20:44.471Z,47.38
2019-04-05T20:25:50.195Z,47.75
2019-04-05T20:30:54.240Z,45.75
2019-04-05T20:36:02.250Z,53.63
2019-04-05T20:41:06.228Z,47.33
2019-04-05T20:46:10.127Z,47.00
2019-04-05T20:51:18.452Z,49.00
2019-04-05T20:56:21.983Z,48.00
2019-04-05T21:01:27.578Z,42.50
2019-04-05T21:06:31.466Z,45.75
2019-04-05T21:11:38.210Z,44.25
2019-04-05T21:16:44.578Z,46.57
2019-04-05T21:21:47.665Z,51.25
2019-04-05T21:26:56.569Z,46.25
2019-04-05T21:32:00.425Z,53.67
2019-04-05T21:37:06.999Z,54.29
2019-04-05T21:42:12.015Z,54.00
2019-04-05T21:47:18.877Z,67.00
2019-04-05T21:52:25.231Z,61.67
2019-04-05T21:57:30.534Z,52.71
2019-04-05T22:02:40.536Z,50.50
2019-04-05T22:07:47.742Z,52.78
2019-04-05T22:12:53.968Z,48.87
2019-04-05T22:18:03.058Z,62.78
2019-04-05T22:23:10.093Z,52.57
2019-04-05T22:28:16.571Z,51.14
2019-04-05T22:33:24.103Z,76.86
2019-04-05T22:38:45.465Z,51.68
2019-04-05T22:44:04.474Z,52.81
2019-04-05T22:49:11.183Z,52.00
2019-04-05T22:54:16.046Z,49.00
2019-04-05T22:59:24.730Z,52.88
2019-04-05T23:04:32.730Z,52.38
2019-04-05T23:09:38.963Z,54.38
2019-04-05T23:14:45.250Z,50.50
2019-04-05T23:19:51.767Z,54.13
2019-04-05T23:24:59.884Z,45.75
2019-04-05T23:30:06.462Z,50.00
2019-04-05T23:35:10.771Z,50.50
2019-04-05T23:40:14.590Z,56.00
2019-04-05T23:45:18.239Z,49.00
2019-04-05T23:50:26.166Z,49.29
2019-04-05T23:55:34.045Z,56.13
